Petersburg, Ohio
Current Conditions -  °F | °C
As of 8:47 PM on Tuesday 25 Nov 2014 (Local Time) from KBVI Reporting Station
Clear Clear  
Wind Chill: 30°   Ceiling: Unl
Heat Index: 30°   Visibility: 10mi
Dew Point: 25°   Wind: 0mph
Humidity: 80%   Direction: NA
Pressure: 30.16"   Gusts: NA
Location:  40.91°N, 80.53°W
Report Text: KBVI 260147Z 00000KT 10SM CLR M01/M04 A3016 RMK LAST
Loading
Personal Weather Stations






























Interactive Weather Map New forecast layout! Learn more

10-Day Weather Forecast

Advertisements
Track Severe Weather on mobile